createdAt,value
2022-11-06T00:00:49.506Z,11.72
2022-11-06T00:03:17.026Z,11.75
2022-11-06T00:06:01.947Z,11.55
2022-11-06T00:08:30.476Z,11.59
2022-11-06T00:10:59.356Z,11.59
2022-11-06T00:13:26.983Z,11.62
2022-11-06T00:15:54.596Z,11.53
2022-11-06T00:18:22.051Z,11.38
2022-11-06T00:20:49.515Z,11.22
2022-11-06T00:23:16.998Z,11.20
2022-11-06T00:25:44.481Z,11.22
2022-11-06T00:28:13.671Z,11.50
2022-11-06T00:30:41.547Z,11.20
2022-11-06T00:33:10.651Z,11.38
2022-11-06T00:35:38.539Z,11.10
2022-11-06T00:38:06.132Z,11.04
2022-11-06T00:40:33.586Z,11.30
2022-11-06T00:43:01.179Z,11.23
2022-11-06T00:45:29.987Z,11.25
2022-11-06T00:47:57.437Z,10.89
2022-11-06T00:50:26.453Z,11.18
2022-11-06T00:52:54.486Z,11.14
2022-11-06T00:55:22.020Z,10.75
2022-11-06T00:57:49.464Z,10.79
2022-11-06T01:00:18.042Z,10.99
2022-11-06T01:02:46.966Z,10.84
2022-11-06T01:05:14.687Z,10.82
2022-11-06T01:07:42.541Z,11.03
2022-11-06T01:10:10.299Z,10.97
2022-11-06T01:12:37.831Z,11.26
2022-11-06T01:15:05.746Z,11.37
2022-11-06T01:17:33.659Z,11.44
2022-11-06T01:20:02.891Z,11.05
2022-11-06T01:22:30.437Z,11.00
2022-11-06T01:24:58.011Z,10.74
2022-11-06T01:27:26.946Z,10.98
2022-11-06T01:29:55.066Z,10.94
2022-11-06T01:32:22.605Z,10.92
2022-11-06T01:34:50.308Z,10.40
2022-11-06T01:37:19.152Z,10.72
2022-11-06T01:39:47.302Z,11.07
2022-11-06T01:42:14.854Z,10.85
2022-11-06T01:45:07.276Z,10.66
2022-11-06T01:47:34.703Z,11.10
2022-11-06T01:50:04.625Z,11.20
2022-11-06T01:52:33.611Z,11.35
2022-11-06T01:55:03.427Z,11.29
2022-11-06T01:57:30.975Z,11.33
2022-11-06T01:59:58.426Z,11.08
2022-11-06T02:02:25.987Z,11.24
2022-11-06T02:04:53.516Z,10.80
2022-11-06T02:07:21.249Z,10.90
2022-11-06T02:09:50.100Z,10.83
2022-11-06T02:12:20.072Z,10.56
2022-11-06T02:14:52.311Z,10.49
2022-11-06T02:17:21.883Z,10.59
2022-11-06T02:19:53.244Z,11.08
2022-11-06T02:22:25.271Z,11.27
2022-11-06T02:24:59.975Z,10.95
2022-11-06T02:27:28.983Z,11.15
2022-11-06T02:29:57.251Z,11.00
2022-11-06T02:32:25.735Z,10.98
2022-11-06T02:34:53.534Z,11.02
2022-11-06T02:37:22.790Z,10.97
2022-11-06T02:39:50.261Z,11.51
2022-11-06T02:42:17.788Z,11.02
2022-11-06T02:44:46.594Z,11.10
2022-11-06T02:47:14.356Z,11.18
2022-11-06T02:49:42.468Z,11.12
2022-11-06T02:52:11.473Z,11.04
2022-11-06T02:54:39.639Z,11.22
2022-11-06T02:57:08.459Z,11.03
2022-11-06T02:59:38.053Z,11.25
2022-11-06T03:02:07.525Z,11.30
2022-11-06T03:04:36.564Z,11.07
2022-11-06T03:07:05.147Z,11.03
2022-11-06T03:09:33.252Z,11.11
2022-11-06T03:12:02.135Z,11.22
2022-11-06T03:14:31.252Z,11.48
2022-11-06T03:16:59.262Z,11.27
2022-11-06T03:19:29.011Z,11.28
2022-11-06T03:21:58.960Z,11.58
2022-11-06T03:24:31.035Z,11.47
2022-11-06T03:26:59.062Z,11.44
2022-11-06T03:29:27.688Z,11.49
2022-11-06T03:31:55.997Z,11.04
2022-11-06T03:34:26.104Z,10.68
2022-11-06T03:36:56.117Z,11.05
2022-11-06T03:39:24.707Z,11.22
2022-11-06T03:41:52.956Z,11.31
2022-11-06T03:44:21.376Z,11.01
2022-11-06T03:46:49.655Z,11.23
2022-11-06T03:49:18.310Z,11.64
2022-11-06T03:51:46.210Z,11.48
2022-11-06T03:54:16.563Z,11.54
2022-11-06T03:56:44.947Z,11.56
2022-11-06T03:59:12.769Z,11.27
2022-11-06T04:01:42.508Z,11.85
2022-11-06T04:04:11.437Z,12.03
2022-11-06T04:06:40.023Z,11.55
2022-11-06T04:09:24.827Z,11.72
2022-11-06T04:12:10.903Z,11.49
2022-11-06T04:14:38.771Z,11.93
2022-11-06T04:17:07.823Z,11.76
2022-11-06T04:19:35.326Z,11.10
2022-11-06T04:22:10.071Z,11.23
2022-11-06T04:24:59.115Z,11.49
2022-11-06T04:27:30.689Z,11.76
2022-11-06T04:30:05.982Z,11.57
2022-11-06T04:32:39.950Z,11.89
2022-11-06T04:35:08.897Z,11.62
2022-11-06T04:37:37.940Z,11.63
2022-11-06T04:40:06.915Z,11.81
2022-11-06T04:42:37.292Z,11.40
2022-11-06T04:45:06.092Z,11.49
2022-11-06T04:47:33.536Z,11.87
2022-11-06T04:50:01.879Z,12.04
2022-11-06T04:52:29.935Z,11.61
2022-11-06T04:54:57.763Z,11.60
2022-11-06T04:57:25.250Z,11.85
2022-11-06T04:59:54.030Z,11.64
2022-11-06T05:02:21.553Z,11.77
2022-11-06T05:04:49.345Z,11.61
2022-11-06T05:07:17.558Z,11.69
2022-11-06T05:09:45.627Z,12.00
2022-11-06T05:12:13.499Z,11.29
2022-11-06T05:14:40.965Z,11.63
2022-11-06T05:17:10.309Z,11.78
2022-11-06T05:19:37.764Z,11.92
2022-11-06T05:22:22.577Z,11.55
2022-11-06T05:24:50.050Z,12.12
2022-11-06T05:27:17.490Z,12.04
2022-11-06T05:29:44.952Z,10.93
2022-11-06T05:32:13.772Z,11.92
2022-11-06T05:34:42.273Z,11.64
2022-11-06T05:37:09.745Z,11.95
2022-11-06T05:39:41.567Z,11.38
2022-11-06T05:42:09.767Z,11.38
2022-11-06T05:44:37.708Z,11.55
2022-11-06T05:47:05.252Z,11.78
2022-11-06T05:49:34.298Z,11.62
2022-11-06T05:52:01.776Z,12.11
2022-11-06T05:54:29.234Z,12.09
2022-11-06T05:56:56.716Z,11.86
2022-11-06T05:59:24.232Z,12.06
2022-11-06T06:01:51.774Z,12.04
2022-11-06T06:04:19.318Z,12.09
2022-11-06T06:06:48.128Z,12.18
2022-11-06T06:09:15.587Z,12.18
2022-11-06T06:11:43.016Z,12.14
2022-11-06T06:14:10.575Z,12.18
2022-11-06T06:16:38.021Z,12.03
2022-11-06T06:19:05.478Z,12.05
2022-11-06T06:21:32.932Z,11.63
2022-11-06T06:24:01.743Z,11.93
2022-11-06T06:26:29.166Z,11.67
2022-11-06T06:28:56.651Z,11.88
2022-11-06T06:31:24.145Z,11.78
2022-11-06T06:33:51.650Z,11.89
2022-11-06T06:36:19.113Z,12.23
2022-11-06T06:38:46.599Z,12.06
2022-11-06T06:41:15.407Z,11.34
2022-11-06T06:43:42.934Z,11.86
2022-11-06T06:46:10.450Z,12.15
2022-11-06T06:48:37.955Z,11.79
2022-11-06T06:51:07.764Z,12.15
2022-11-06T06:53:35.274Z,11.89
2022-11-06T06:56:02.761Z,12.01
2022-11-06T06:58:31.903Z,11.88
2022-11-06T07:01:00.156Z,11.66
2022-11-06T07:03:27.998Z,11.91
2022-11-06T07:05:55.462Z,11.64
2022-11-06T07:08:23.150Z,11.62
2022-11-06T07:10:50.795Z,12.05
2022-11-06T07:13:18.439Z,11.73
2022-11-06T07:15:47.465Z,12.39
2022-11-06T07:18:15.519Z,12.18
2022-11-06T07:20:43.397Z,11.95
2022-11-06T07:23:11.128Z,11.92
2022-11-06T07:25:38.869Z,11.92
2022-11-06T07:28:08.024Z,12.26
2022-11-06T07:30:36.559Z,12.07
2022-11-06T07:33:06.517Z,12.12
2022-11-06T07:35:34.834Z,12.54
2022-11-06T07:38:04.808Z,12.74
2022-11-06T07:40:32.604Z,12.30
2022-11-06T07:43:04.611Z,12.39
2022-11-06T07:45:32.257Z,12.16
2022-11-06T07:47:59.971Z,12.50
2022-11-06T07:50:29.239Z,12.42
2022-11-06T07:52:57.018Z,12.64
2022-11-06T07:55:24.847Z,12.82
2022-11-06T07:57:52.516Z,12.70
2022-11-06T08:00:20.988Z,12.58
2022-11-06T08:02:52.037Z,12.67
2022-11-06T08:05:19.720Z,13.15
2022-11-06T08:07:48.744Z,12.97
2022-11-06T08:10:16.437Z,12.93
2022-11-06T08:12:44.093Z,13.09
2022-11-06T08:15:12.060Z,12.79
2022-11-06T08:17:39.746Z,12.80
2022-11-06T08:20:09.088Z,13.28
2022-11-06T08:22:36.788Z,13.29
2022-11-06T08:25:06.734Z,13.17
2022-11-06T08:27:34.370Z,13.36
2022-11-06T08:30:02.021Z,12.57
2022-11-06T08:32:29.818Z,12.90
2022-11-06T08:34:57.461Z,12.56
2022-11-06T08:37:25.106Z,13.25
2022-11-06T08:39:52.771Z,13.43
2022-11-06T08:42:21.744Z,13.59
2022-11-06T08:44:49.391Z,13.72
2022-11-06T08:47:17.006Z,13.70
2022-11-06T08:49:44.666Z,13.55
2022-11-06T08:52:12.326Z,13.72
2022-11-06T08:54:39.975Z,14.07
2022-11-06T08:57:07.603Z,14.13
2022-11-06T08:59:36.451Z,14.10
2022-11-06T09:02:04.023Z,13.64
2022-11-06T09:04:31.614Z,13.47
2022-11-06T09:06:59.081Z,14.24
2022-11-06T09:09:31.877Z,13.75
2022-11-06T09:11:59.414Z,13.84
2022-11-06T09:14:26.851Z,13.97
2022-11-06T09:16:55.679Z,13.82
2022-11-06T09:19:23.154Z,13.49
2022-11-06T09:21:54.683Z,13.55
2022-11-06T09:24:43.297Z,13.48
2022-11-06T09:27:10.137Z,13.51
2022-11-06T09:29:40.690Z,13.84
2022-11-06T09:32:09.549Z,13.73
2022-11-06T09:34:37.007Z,13.64
2022-11-06T09:37:04.438Z,14.29
2022-11-06T09:39:31.887Z,14.39
2022-11-06T09:41:59.883Z,13.81
2022-11-06T09:44:30.899Z,14.41
2022-11-06T09:46:58.351Z,13.92
2022-11-06T09:49:27.647Z,13.91
2022-11-06T09:51:56.795Z,13.77
2022-11-06T09:54:24.992Z,14.11
2022-11-06T09:56:55.430Z,14.32
2022-11-06T09:59:22.919Z,14.15
2022-11-06T10:01:51.895Z,14.57
2022-11-06T10:04:22.551Z,15.03
2022-11-06T10:06:51.368Z,14.70
2022-11-06T10:09:18.887Z,15.27
2022-11-06T10:11:50.189Z,15.54
2022-11-06T10:14:21.539Z,15.61
2022-11-06T10:16:50.720Z,15.57
2022-11-06T10:19:29.740Z,15.31
2022-11-06T10:22:00.222Z,15.65
2022-11-06T10:24:30.062Z,15.58
2022-11-06T10:26:57.787Z,15.55
2022-11-06T10:29:42.905Z,15.23
2022-11-06T10:32:15.393Z,15.27
2022-11-06T10:34:43.109Z,15.30
2022-11-06T10:37:12.174Z,14.06
2022-11-06T10:39:39.637Z,14.76
2022-11-06T10:42:07.699Z,14.19
2022-11-06T10:44:37.210Z,15.09
2022-11-06T10:47:05.863Z,14.57
2022-11-06T10:49:36.220Z,14.86
2022-11-06T10:52:17.403Z,14.95
2022-11-06T10:54:48.895Z,14.49
2022-11-06T10:57:20.188Z,14.97
2022-11-06T10:59:48.253Z,14.49
2022-11-06T11:02:22.676Z,14.91
2022-11-06T11:04:53.982Z,14.77
2022-11-06T11:07:25.663Z,15.20
2022-11-06T11:09:53.331Z,14.88
2022-11-06T11:12:22.227Z,15.24
2022-11-06T11:15:04.815Z,14.91
2022-11-06T11:17:32.325Z,15.22
2022-11-06T11:20:02.175Z,14.93
2022-11-06T11:22:33.233Z,14.78
2022-11-06T11:25:02.829Z,15.12
2022-11-06T11:27:30.349Z,15.17
2022-11-06T11:29:57.854Z,14.99
2022-11-06T11:32:25.348Z,15.03
2022-11-06T11:34:56.603Z,15.47
2022-11-06T11:37:25.515Z,14.89
2022-11-06T11:39:54.346Z,15.13
2022-11-06T11:42:23.098Z,15.12
2022-11-06T11:45:04.585Z,15.08
2022-11-06T11:47:32.051Z,15.37
2022-11-06T11:49:59.517Z,15.58
2022-11-06T11:52:26.996Z,15.44
2022-11-06T11:54:55.791Z,15.77
2022-11-06T11:57:23.672Z,15.17
2022-11-06T11:59:52.743Z,15.68
2022-11-06T12:02:26.764Z,15.59
2022-11-06T12:04:55.886Z,15.87
2022-11-06T12:07:24.919Z,16.61
2022-11-06T12:09:52.409Z,16.27
2022-11-06T12:12:23.207Z,15.95
2022-11-06T12:15:04.788Z,15.95
2022-11-06T12:17:33.850Z,15.74
2022-11-06T12:20:01.348Z,15.67
2022-11-06T12:22:29.556Z,15.67
2022-11-06T12:24:58.744Z,15.46
2022-11-06T12:27:28.083Z,15.85
2022-11-06T12:29:58.263Z,16.08
2022-11-06T12:32:27.756Z,15.91
2022-11-06T12:34:56.940Z,14.97
2022-11-06T12:37:25.899Z,15.41
2022-11-06T12:39:53.895Z,16.09
2022-11-06T12:42:21.373Z,15.41
2022-11-06T12:44:50.179Z,15.94
2022-11-06T12:47:26.187Z,15.36
2022-11-06T12:50:01.088Z,15.87
2022-11-06T12:52:30.152Z,16.08
2022-11-06T12:55:02.206Z,16.45
2022-11-06T12:57:31.715Z,16.14
2022-11-06T13:00:11.224Z,15.83
2022-11-06T13:02:46.112Z,15.73
2022-11-06T13:05:15.087Z,15.97
2022-11-06T13:07:52.478Z,15.22
2022-11-06T13:10:21.456Z,15.72
2022-11-06T13:12:51.371Z,15.59
2022-11-06T13:15:22.649Z,15.53
2022-11-06T13:17:50.923Z,15.60
2022-11-06T13:20:20.266Z,15.45
2022-11-06T13:22:49.540Z,15.62
2022-11-06T13:25:18.311Z,15.13
2022-11-06T13:27:47.032Z,15.46
2022-11-06T13:30:16.306Z,15.46
2022-11-06T13:32:51.066Z,15.87
2022-11-06T13:35:21.038Z,15.78
2022-11-06T13:37:48.753Z,15.67
2022-11-06T13:40:21.322Z,15.47
2022-11-06T13:42:49.950Z,15.78
2022-11-06T13:45:17.441Z,15.47
2022-11-06T13:47:50.096Z,15.31
2022-11-06T13:50:19.192Z,14.88
2022-11-06T13:52:47.485Z,14.83
2022-11-06T13:55:16.126Z,14.99
2022-11-06T13:57:58.562Z,14.73
2022-11-06T14:00:26.199Z,14.80
2022-11-06T14:03:05.953Z,14.77
2022-11-06T14:05:53.219Z,14.79
2022-11-06T14:08:22.263Z,15.33
2022-11-06T14:10:51.375Z,15.14
2022-11-06T14:13:18.820Z,14.89
2022-11-06T14:15:47.539Z,14.84
2022-11-06T14:18:23.759Z,14.23
2022-11-06T14:20:51.195Z,15.22
2022-11-06T14:23:37.942Z,14.98
2022-11-06T14:26:06.159Z,14.89
2022-11-06T14:28:34.359Z,14.77
2022-11-06T14:31:23.729Z,14.54
2022-11-06T14:34:00.645Z,14.65
2022-11-06T14:36:29.528Z,14.40
2022-11-06T14:38:57.058Z,14.34
2022-11-06T14:41:49.060Z,14.40
2022-11-06T14:44:22.348Z,14.43
2022-11-06T14:46:50.196Z,14.46
2022-11-06T14:49:20.930Z,14.06
2022-11-06T14:51:54.739Z,14.19
2022-11-06T14:54:22.720Z,14.39
2022-11-06T14:56:52.875Z,14.24
2022-11-06T14:59:21.244Z,14.35
2022-11-06T15:01:54.988Z,14.07
2022-11-06T15:04:23.865Z,13.78
2022-11-06T15:06:51.747Z,13.87
2022-11-06T15:09:34.055Z,14.36
2022-11-06T15:12:01.700Z,14.52
2022-11-06T15:14:47.994Z,14.06
2022-11-06T15:17:15.731Z,13.85
2022-11-06T15:19:44.933Z,14.03
2022-11-06T15:22:15.372Z,14.30
2022-11-06T15:24:44.328Z,13.87
2022-11-06T15:27:13.466Z,13.91
2022-11-06T15:29:42.025Z,13.87
2022-11-06T15:32:11.163Z,13.78
2022-11-06T15:34:39.150Z,13.68
2022-11-06T15:37:09.355Z,13.93
2022-11-06T15:39:39.519Z,13.61
2022-11-06T15:42:08.460Z,13.43
2022-11-06T15:44:38.214Z,13.63
2022-11-06T15:47:05.719Z,13.62
2022-11-06T15:49:33.258Z,13.67
2022-11-06T15:52:01.417Z,13.28
2022-11-06T15:54:36.011Z,13.41
2022-11-06T15:57:04.414Z,13.55
2022-11-06T15:59:32.333Z,13.53
2022-11-06T16:01:59.870Z,13.58
2022-11-06T16:04:27.516Z,13.35
2022-11-06T16:06:55.188Z,13.37
2022-11-06T16:09:23.285Z,12.79
2022-11-06T16:11:52.488Z,12.69
2022-11-06T16:14:20.488Z,13.20
2022-11-06T16:16:48.622Z,12.94
2022-11-06T16:19:26.795Z,12.55
2022-11-06T16:21:56.191Z,12.50
2022-11-06T16:24:23.732Z,12.10
2022-11-06T16:26:52.579Z,12.61
2022-11-06T16:29:21.325Z,12.40
2022-11-06T16:31:49.337Z,12.07
2022-11-06T16:34:21.667Z,11.62
2022-11-06T16:36:50.069Z,11.62
2022-11-06T16:39:48.809Z,11.31
2022-11-06T16:42:31.396Z,11.63
2022-11-06T16:45:02.433Z,11.78
2022-11-06T16:47:30.049Z,11.29
2022-11-06T16:49:57.575Z,11.44
2022-11-06T16:52:28.733Z,11.36
2022-11-06T16:54:57.267Z,11.47
2022-11-06T16:57:25.442Z,11.44
2022-11-06T17:00:05.574Z,11.29
2022-11-06T17:02:33.769Z,11.29
2022-11-06T17:05:11.679Z,11.38
2022-11-06T17:07:39.826Z,11.60
2022-11-06T17:10:26.538Z,11.46
2022-11-06T17:12:54.014Z,11.65
2022-11-06T17:15:22.844Z,11.61
2022-11-06T17:17:50.515Z,11.43
2022-11-06T17:20:18.579Z,11.65
2022-11-06T17:22:46.116Z,11.20
2022-11-06T17:25:13.559Z,11.53
2022-11-06T17:27:41.630Z,11.38
2022-11-06T17:30:12.750Z,11.52
2022-11-06T17:32:41.750Z,11.28
2022-11-06T17:35:09.750Z,11.46
2022-11-06T17:37:37.230Z,11.49
2022-11-06T17:40:05.134Z,11.49
2022-11-06T17:42:32.798Z,11.58
2022-11-06T17:45:00.242Z,11.43
2022-11-06T17:47:27.716Z,11.42
2022-11-06T17:49:56.826Z,11.45
2022-11-06T17:52:24.548Z,11.10
2022-11-06T17:54:52.011Z,11.46
2022-11-06T17:57:23.852Z,11.41
2022-11-06T17:59:51.683Z,11.39
2022-11-06T18:02:40.824Z,11.37
2022-11-06T18:05:08.499Z,11.30
2022-11-06T18:07:35.952Z,11.68
2022-11-06T18:10:03.527Z,10.96
2022-11-06T18:12:31.043Z,11.36
2022-11-06T18:14:58.515Z,11.32
2022-11-06T18:17:25.959Z,11.20
2022-11-06T18:19:53.447Z,11.50
2022-11-06T18:22:22.260Z,11.09
2022-11-06T18:24:49.711Z,11.23
2022-11-06T18:27:17.160Z,10.71
2022-11-06T18:29:44.601Z,11.16
2022-11-06T18:32:12.202Z,11.20
2022-11-06T18:34:40.315Z,11.18
2022-11-06T18:37:07.763Z,11.04
2022-11-06T18:39:36.599Z,10.74
2022-11-06T18:42:04.144Z,10.99
2022-11-06T18:44:32.378Z,11.02
2022-11-06T18:46:59.832Z,11.24
2022-11-06T18:49:27.277Z,10.76
2022-11-06T18:51:54.780Z,10.92
2022-11-06T18:54:22.444Z,10.91
2022-11-06T18:56:51.251Z,11.24
2022-11-06T18:59:20.035Z,11.15
2022-11-06T19:01:47.605Z,11.03
2022-11-06T19:04:15.242Z,10.60
2022-11-06T19:06:42.748Z,10.63
2022-11-06T19:09:10.795Z,10.76
2022-11-06T19:11:38.315Z,10.61
2022-11-06T19:14:07.152Z,10.77
2022-11-06T19:16:34.623Z,10.82
2022-11-06T19:21:31.378Z,11.21
2022-11-06T19:24:03.337Z,10.89
2022-11-06T19:26:32.703Z,10.80
2022-11-06T19:29:00.740Z,11.08
2022-11-06T19:31:30.325Z,10.95
2022-11-06T19:33:58.111Z,10.71
2022-11-06T19:36:26.036Z,10.74
2022-11-06T19:38:53.554Z,11.27
2022-11-06T19:41:21.158Z,11.19
2022-11-06T19:43:48.637Z,11.23
2022-11-06T19:46:23.450Z,11.38
2022-11-06T19:48:53.762Z,11.27
2022-11-06T19:51:21.223Z,11.34
2022-11-06T19:53:52.112Z,11.07
2022-11-06T19:56:19.570Z,10.89
2022-11-06T19:58:47.656Z,11.03
2022-11-06T20:01:15.662Z,11.29
2022-11-06T20:03:43.181Z,11.28
2022-11-06T20:06:12.182Z,11.01
2022-11-06T20:08:39.692Z,11.33
2022-11-06T20:11:07.804Z,11.63
2022-11-06T20:13:36.483Z,11.47
2022-11-06T20:16:04.092Z,10.91
2022-11-06T20:18:31.586Z,11.39
2022-11-06T20:21:00.392Z,11.56
2022-11-06T20:23:29.265Z,11.82
2022-11-06T20:25:56.743Z,11.26
2022-11-06T20:28:24.423Z,11.21
2022-11-06T20:30:51.914Z,11.43
2022-11-06T20:33:19.490Z,11.31
2022-11-06T20:35:47.830Z,11.49
2022-11-06T20:38:15.646Z,11.78
2022-11-06T20:40:44.478Z,11.56
2022-11-06T20:43:12.213Z,11.45
2022-11-06T20:45:39.991Z,11.30
2022-11-06T20:48:08.999Z,11.23
2022-11-06T20:50:36.517Z,11.04
2022-11-06T20:53:04.016Z,11.50
2022-11-06T20:55:31.526Z,11.53
2022-11-06T20:58:00.381Z,11.46
2022-11-06T21:00:28.730Z,11.67
2022-11-06T21:03:01.378Z,11.36
2022-11-06T21:05:29.388Z,11.33
2022-11-06T21:07:56.835Z,11.13
2022-11-06T21:10:24.318Z,11.53
2022-11-06T21:12:51.788Z,11.51
2022-11-06T21:15:20.652Z,11.27
2022-11-06T21:17:48.091Z,11.73
2022-11-06T21:20:20.386Z,11.11
2022-11-06T21:22:50.152Z,11.77
2022-11-06T21:25:17.643Z,11.57
2022-11-06T21:27:45.112Z,11.78
2022-11-06T21:30:12.939Z,11.30
2022-11-06T21:32:41.747Z,11.42
2022-11-06T21:35:09.630Z,11.57
2022-11-06T21:37:37.092Z,11.53
2022-11-06T21:40:05.108Z,12.01
2022-11-06T21:42:32.632Z,11.74
2022-11-06T21:45:00.112Z,11.70
2022-11-06T21:47:27.631Z,11.67
2022-11-06T21:49:56.498Z,11.80
2022-11-06T21:52:41.695Z,11.83
2022-11-06T21:55:28.105Z,11.73
2022-11-06T21:57:55.771Z,11.93
2022-11-06T22:00:23.244Z,11.86
2022-11-06T22:02:51.737Z,11.68
2022-11-06T22:05:20.619Z,11.79
2022-11-06T22:07:48.080Z,12.19
2022-11-06T22:10:15.559Z,12.08
2022-11-06T22:12:42.990Z,11.98
2022-11-06T22:15:10.735Z,12.06
2022-11-06T22:17:38.200Z,11.99
2022-11-06T22:20:06.123Z,11.59
2022-11-06T22:22:34.996Z,12.12
2022-11-06T22:25:02.747Z,12.03
2022-11-06T22:27:30.400Z,11.98
2022-11-06T22:29:58.072Z,11.75
2022-11-06T22:32:25.628Z,12.14
2022-11-06T22:34:53.111Z,12.36
2022-11-06T22:37:20.612Z,12.14
2022-11-06T22:39:50.018Z,12.20
2022-11-06T22:42:17.483Z,12.53
2022-11-06T22:44:45.150Z,12.31
2022-11-06T22:47:12.834Z,12.62
2022-11-06T22:49:40.464Z,12.78
2022-11-06T22:52:07.958Z,12.53
2022-11-06T22:54:35.445Z,12.76
2022-11-06T22:57:04.302Z,12.11
2022-11-06T22:59:31.768Z,12.58
2022-11-06T23:02:00.389Z,12.45
2022-11-06T23:04:27.904Z,12.80
2022-11-06T23:06:55.339Z,12.64
2022-11-06T23:09:22.831Z,12.65
2022-11-06T23:11:50.300Z,12.61
2022-11-06T23:14:19.136Z,12.82
2022-11-06T23:16:58.903Z,12.55
2022-11-06T23:19:26.680Z,12.85
2022-11-06T23:22:14.269Z,13.14
2022-11-06T23:24:41.734Z,12.59
2022-11-06T23:27:09.871Z,12.70
2022-11-06T23:29:38.764Z,12.52
2022-11-06T23:32:06.515Z,12.84
2022-11-06T23:34:34.071Z,12.80
2022-11-06T23:37:01.552Z,13.00
2022-11-06T23:39:28.997Z,13.11
2022-11-06T23:41:56.484Z,12.82
2022-11-06T23:44:41.445Z,12.65
2022-11-06T23:47:10.285Z,13.11
2022-11-06T23:49:37.737Z,12.84
2022-11-06T23:52:05.432Z,12.96
2022-11-06T23:54:32.913Z,13.19
2022-11-06T23:57:00.359Z,13.17
2022-11-06T23:59:27.827Z,13.08
